Archiv-/Tagesdaten

--Timestamp---	Temp	Chill	HIndex	Humid	Dewpt	 Wind 	HiWind	WindDir	Rain 	Barom	Solar	 ET  	 UV 
--------------	----	-----	------	-----	-----	------	------	-------	-----	-----	-----	-----	----
20100210 00:00	-6.3	-9.4	-6.3	89	-7.8	6	11	135	0.0	1004.6	0	0.000	0.0
20100210 00:05	-6.3	-6.3	-6.3	89	-7.8	5	8	135	0.0	1004.5	0	0.000	0.0
20100210 00:10	-6.3	-6.3	-6.3	89	-7.8	3	6	135	0.0	1004.6	0	0.000	0.0
20100210 00:15	-6.3	-6.3	-6.3	89	-7.8	5	10	135	0.0	1004.6	0	0.000	0.0
20100210 00:20	-6.3	-6.3	-6.3	89	-7.8	3	8	112	0.0	1004.5	0	0.000	0.0
20100210 00:25	-6.3	-6.3	-6.3	89	-7.8	3	5	112	0.0	1004.5	0	0.000	0.0
20100210 00:30	-6.3	-6.3	-6.3	89	-7.8	5	10	112	0.0	1004.4	0	0.000	0.0
20100210 00:35	-6.3	-9.5	-6.3	89	-7.8	6	10	112	0.0	1004.4	0	0.000	0.0
20100210 00:40	-6.3	-6.3	-6.3	89	-7.8	5	10	112	0.0	1004.3	0	0.000	0.0
20100210 00:45	-6.3	-6.3	-6.3	89	-7.8	5	11	158	0.0	1004.2	0	0.000	0.0
20100210 00:50	-6.3	-9.5	-6.3	89	-7.8	6	8	135	0.0	1004.2	0	0.000	0.0
20100210 00:55	-6.3	-9.5	-6.3	89	-7.8	6	10	135	0.0	1004.2	0	0.000	0.0
20100210 01:00	-6.4	-9.6	-6.4	89	-7.9	6	10	135	0.0	1004.2	0	0.000	0.0
20100210 01:05	-6.4	-6.4	-6.4	89	-7.9	5	8	112	0.0	1004.2	0	0.000	0.0
20100210 01:10	-6.4	-9.6	-6.4	89	-8.0	6	8	112	0.0	1004.2	0	0.000	0.0
20100210 01:15	-6.5	-6.5	-6.5	89	-8.0	5	8	112	0.0	1004.2	0	0.000	0.0
20100210 01:20	-6.5	-6.5	-6.5	89	-8.0	5	8	112	0.0	1004.3	0	0.000	0.0
20100210 01:25	-6.5	-6.5	-6.5	89	-8.0	3	8	135	0.0	1004.3	0	0.000	0.0
20100210 01:30	-6.4	-6.4	-6.4	89	-8.0	3	5	135	0.0	1004.3	0	0.000	0.0
20100210 01:35	-6.4	-6.4	-6.4	89	-7.9	2	6	135	0.0	1004.3	0	0.000	0.0
20100210 01:40	-6.4	-6.4	-6.4	89	-8.0	3	5	135	0.0	1004.4	0	0.000	0.0
20100210 01:45	-6.4	-6.4	-6.4	89	-8.0	3	6	135	0.0	1004.4	0	0.000	0.0
20100210 01:50	-6.4	-6.4	-6.4	89	-8.0	2	5	135	0.0	1004.4	0	0.000	0.0
20100210 01:55	-6.5	-6.5	-6.5	89	-8.0	0	3	135	0.0	1004.4	0	0.000	0.0
20100210 02:00	-6.5	-6.5	-6.5	89	-8.0	3	6	135	0.0	1004.3	0	0.000	0.0
20100210 02:05	-6.5	-6.5	-6.5	89	-8.0	2	5	135	0.0	1004.3	0	0.000	0.0
20100210 02:10	-6.4	-6.4	-6.4	89	-8.0	3	5	135	0.0	1004.5	0	0.000	0.0
20100210 02:15	-6.4	-6.4	-6.4	89	-8.0	0	0	-100000	0.0	1004.5	0	0.000	0.0
20100210 02:20	-6.4	-6.4	-6.4	89	-8.0	2	6	135	0.0	1004.5	0	0.000	0.0
20100210 02:25	-6.4	-6.4	-6.4	89	-8.0	2	3	135	0.0	1004.5	0	0.000	0.0
20100210 02:30	-6.4	-6.4	-6.4	89	-8.0	2	5	135	0.0	1004.5	0	0.000	0.0
20100210 02:35	-6.4	-6.4	-6.4	89	-8.0	2	6	135	0.0	1004.5	0	0.000	0.0
20100210 02:40	-6.4	-6.4	-6.4	89	-8.0	2	5	135	0.0	1004.5	0	0.000	0.0
20100210 02:45	-6.4	-6.4	-6.4	89	-8.0	3	5	135	0.0	1004.5	0	0.000	0.0
20100210 02:50	-6.4	-6.4	-6.4	89	-8.0	2	6	135	0.0	1004.5	0	0.000	0.0
20100210 02:55	-6.4	-6.4	-6.4	89	-8.0	3	6	135	0.0	1004.4	0	0.000	0.0
20100210 03:00	-6.4	-6.4	-6.4	89	-8.0	2	5	135	0.0	1004.4	0	0.000	0.0
20100210 03:05	-6.4	-6.4	-6.4	89	-8.0	2	6	135	0.0	1004.4	0	0.000	0.0
20100210 03:10	-6.4	-6.4	-6.4	89	-7.9	2	5	135	0.0	1004.3	0	0.000	0.0
20100210 03:15	-6.3	-6.3	-6.3	89	-7.8	0	3	135	0.0	1004.2	0	0.000	0.0
20100210 03:20	-6.3	-6.3	-6.3	89	-7.8	2	3	135	0.0	1004.2	0	0.000	0.0
20100210 03:25	-6.3	-6.3	-6.3	89	-7.8	0	3	135	0.0	1004.2	0	0.000	0.0
20100210 03:30	-6.3	-6.3	-6.3	89	-7.8	2	5	135	0.0	1004.2	0	0.000	0.0
20100210 03:35	-6.3	-6.3	-6.3	89	-7.8	2	5	135	0.0	1004.3	0	0.000	0.0
20100210 03:40	-6.3	-6.3	-6.3	89	-7.8	2	3	135	0.0	1004.3	0	0.000	0.0
20100210 03:45	-6.3	-6.3	-6.3	89	-7.8	3	5	135	0.0	1004.3	0	0.000	0.0
20100210 03:50	-6.4	-6.4	-6.4	89	-7.9	3	6	135	0.0	1004.3	0	0.000	0.0
20100210 03:55	-6.4	-6.4	-6.4	89	-7.9	0	5	135	0.0	1004.3	0	0.000	0.0
20100210 04:00	-6.3	-6.3	-6.3	89	-7.8	2	6	135	0.0	1004.3	0	0.000	0.0
20100210 04:05	-6.3	-6.3	-6.3	89	-7.8	2	5	135	0.0	1004.3	0	0.000	0.0
20100210 04:10	-6.4	-6.4	-6.4	89	-7.9	3	6	135	0.0	1004.2	0	0.000	0.0
20100210 04:15	-6.4	-6.4	-6.4	89	-8.0	3	6	135	0.0	1004.2	0	0.000	0.0
20100210 04:20	-6.4	-6.4	-6.4	89	-8.0	3	6	135	0.0	1004.2	0	0.000	0.0
20100210 04:25	-6.4	-6.4	-6.4	89	-8.0	3	6	135	0.0	1004.3	0	0.000	0.0
20100210 04:30	-6.4	-6.4	-6.4	89	-8.0	3	6	135	0.0	1004.3	0	0.000	0.0
20100210 04:35	-6.5	-6.5	-6.5	89	-8.0	3	6	135	0.0	1004.4	0	0.000	0.0
20100210 04:40	-6.5	-6.5	-6.5	89	-8.0	2	5	135	0.0	1004.4	0	0.000	0.0
20100210 04:45	-6.6	-6.6	-6.6	89	-8.1	2	3	135	0.0	1004.4	0	0.000	0.0
20100210 04:50	-6.6	-6.6	-6.6	89	-8.1	3	6	135	0.0	1004.5	0	0.000	0.0
20100210 04:55	-6.6	-6.6	-6.6	89	-8.1	3	6	90	0.0	1004.6	0	0.000	0.0
20100210 05:00	-6.6	-6.6	-6.6	89	-8.1	2	5	90	0.0	1004.5	0	0.000	0.0
20100210 05:05	-6.6	-6.6	-6.6	89	-8.1	2	5	90	0.0	1004.7	0	0.000	0.0
20100210 05:10	-6.6	-6.6	-6.6	89	-8.1	2	6	90	0.0	1004.7	0	0.000	0.0
20100210 05:15	-6.6	-6.6	-6.6	89	-8.1	3	5	90	0.0	1004.7	0	0.000	0.0
20100210 05:20	-6.6	-6.6	-6.6	89	-8.1	3	6	90	0.0	1004.7	0	0.000	0.0
20100210 05:25	-6.7	-6.7	-6.7	90	-8.0	2	5	90	0.0	1004.6	0	0.000	0.0
20100210 05:30	-6.7	-6.7	-6.7	90	-8.0	2	5	90	0.0	1004.6	0	0.000	0.0
20100210 05:35	-6.7	-6.7	-6.7	90	-8.0	2	5	90	0.0	1004.5	0	0.000	0.0
20100210 05:40	-6.7	-6.7	-6.7	90	-8.1	3	8	90	0.0	1004.6	0	0.000	0.0
20100210 05:45	-6.8	-6.8	-6.8	90	-8.1	3	6	90	0.0	1004.5	0	0.000	0.0
20100210 05:50	-6.7	-6.7	-6.7	90	-8.1	3	6	90	0.0	1004.6	0	0.000	0.0
20100210 05:55	-6.7	-6.7	-6.7	90	-8.1	2	5	90	0.0	1004.7	0	0.000	0.0
20100210 06:00	-6.7	-6.7	-6.7	90	-8.1	3	6	90	0.0	1004.6	0	0.000	0.0
20100210 06:05	-6.8	-6.8	-6.8	90	-8.2	3	8	90	0.0	1004.6	0	0.000	0.0
20100210 06:10	-6.8	-6.8	-6.8	90	-8.2	2	5	90	0.0	1004.6	0	0.000	0.0
20100210 06:15	-6.8	-6.8	-6.8	91	-8.0	2	5	90	0.0	1004.6	0	0.000	0.0
20100210 06:20	-6.7	-6.7	-6.7	91	-7.9	3	6	90	0.0	1004.6	0	0.000	0.0
20100210 06:25	-6.7	-6.7	-6.7	91	-7.9	3	5	90	0.0	1004.6	0	0.000	0.0
20100210 06:30	-6.7	-6.7	-6.7	91	-7.9	2	5	112	0.0	1004.6	0	0.000	0.0
20100210 06:35	-6.7	-6.7	-6.7	91	-7.9	2	5	112	0.0	1004.7	0	0.000	0.0
20100210 06:40	-6.7	-6.7	-6.7	91	-7.9	3	6	112	0.0	1004.7	0	0.000	0.0
20100210 06:45	-6.7	-6.7	-6.7	91	-7.9	3	6	112	0.0	1004.8	0	0.000	0.0
20100210 06:50	-6.7	-6.7	-6.7	91	-7.9	2	5	112	0.0	1004.9	0	0.000	0.0
20100210 06:55	-6.7	-6.7	-6.7	91	-7.9	2	3	112	0.0	1004.9	0	0.000	0.0
20100210 07:00	-6.7	-6.7	-6.7	91	-7.9	2	3	112	0.0	1004.9	0	0.000	0.0
20100210 07:05	-6.7	-6.7	-6.7	91	-7.9	2	5	112	0.0	1005.0	0	0.000	0.0
20100210 07:10	-6.7	-6.7	-6.7	91	-7.9	2	5	112	0.0	1005.0	0	0.000	0.0
20100210 07:15	-6.7	-6.7	-6.7	91	-7.9	3	5	112	0.0	1005.1	0	0.000	0.0
20100210 07:20	-6.7	-6.7	-6.7	91	-7.9	2	5	112	0.0	1005.2	0	0.000	0.0
20100210 07:25	-6.7	-6.7	-6.7	91	-7.9	2	5	112	0.0	1005.2	0	0.000	0.0
20100210 07:30	-6.6	-6.6	-6.6	91	-7.8	3	5	112	0.0	1005.3	0	0.000	0.0
20100210 07:35	-6.6	-6.6	-6.6	91	-7.8	3	6	112	0.0	1005.3	0	0.000	0.0
20100210 07:40	-6.6	-6.6	-6.6	91	-7.8	3	5	112	0.0	1005.3	3	0.000	0.0
20100210 07:45	-6.6	-6.6	-6.6	91	-7.8	2	5	112	0.0	1005.3	6	0.000	0.0
20100210 07:50	-6.5	-6.5	-6.5	91	-7.7	2	3	112	0.0	1005.4	9	0.000	0.0
20100210 07:55	-6.5	-6.5	-6.5	91	-7.7	0	3	112	0.0	1005.4	11	0.000	0.0
20100210 08:00	-6.5	-6.5	-6.5	91	-7.7	2	5	112	0.0	1005.4	13	0.000	0.0
20100210 08:05	-6.5	-6.5	-6.5	91	-7.7	2	3	112	0.0	1005.5	16	0.000	0.0
20100210 08:10	-6.4	-6.4	-6.4	91	-7.7	0	2	112	0.0	1005.4	21	0.000	0.0
20100210 08:15	-6.4	-6.4	-6.4	91	-7.7	0	3	112	0.0	1005.5	24	0.000	0.0
20100210 08:20	-6.4	-6.4	-6.4	91	-7.6	2	5	112	0.0	1005.5	25	0.000	0.0
20100210 08:25	-6.3	-6.3	-6.3	91	-7.6	2	3	112	0.0	1005.5	26	0.000	0.0
20100210 08:30	-6.3	-6.3	-6.3	91	-7.6	2	3	112	0.0	1005.6	28	0.000	0.0
20100210 08:35	-6.3	-6.3	-6.3	91	-7.5	2	3	112	0.0	1005.6	32	0.000	0.0
20100210 08:40	-6.2	-6.2	-6.2	90	-7.6	2	5	112	0.0	1005.6	36	0.000	0.0
20100210 08:45	-6.2	-6.2	-6.2	90	-7.5	2	3	112	0.2	1005.5	42	0.000	0.0
20100210 08:50	-6.1	-6.1	-6.1	90	-7.5	2	5	112	0.0	1005.6	48	0.000	0.0
20100210 08:55	-6.1	-6.1	-6.1	90	-7.4	0	3	112	0.0	1005.6	51	0.000	0.0
20100210 09:00	-6.0	-6.0	-6.0	90	-7.4	0	3	112	0.0	1005.7	56	0.000	0.0
20100210 09:05	-6.0	-6.0	-6.0	89	-7.5	0	2	112	0.0	1005.7	62	0.000	0.0
20100210 09:10	-5.9	-5.9	-5.9	89	-7.5	0	3	112	0.0	1005.7	66	0.000	0.0
20100210 09:15	-5.9	-5.9	-5.9	89	-7.5	0	3	112	0.0	1005.8	71	0.000	0.0
20100210 09:20	-5.9	-5.9	-5.9	89	-7.4	2	3	112	0.0	1005.9	77	0.000	0.0
20100210 09:25	-5.8	-5.8	-5.8	89	-7.3	2	3	112	0.0	1005.9	85	0.000	0.0
20100210 09:30	-5.8	-5.8	-5.8	88	-7.5	2	5	112	0.0	1005.8	91	0.000	0.0
20100210 09:35	-5.8	-5.8	-5.8	88	-7.4	2	5	112	0.0	1005.8	97	0.000	0.0
20100210 09:40	-5.7	-5.7	-5.7	88	-7.4	2	5	112	0.0	1005.9	101	0.000	0.0
20100210 09:45	-5.7	-5.7	-5.7	88	-7.3	2	5	112	0.0	1006.0	99	0.000	0.0
20100210 09:50	-5.6	-5.6	-5.6	88	-7.3	2	3	112	0.0	1006.0	100	0.000	0.0
20100210 09:55	-5.7	-5.7	-5.7	87	-7.5	0	2	112	0.0	1006.1	105	0.000	0.0
20100210 10:00	-5.6	-5.6	-5.6	87	-7.4	2	3	112	0.0	1006.1	110	0.025	0.0
20100210 10:05	-5.6	-5.6	-5.6	87	-7.4	2	5	112	0.0	1006.2	105	0.000	0.0
20100210 10:10	-5.6	-5.6	-5.6	87	-7.4	2	5	112	0.0	1006.2	97	0.000	0.0
20100210 10:15	-5.6	-5.6	-5.6	87	-7.4	2	3	112	0.2	1006.2	98	0.000	0.0
20100210 10:20	-5.5	-5.5	-5.5	88	-7.2	0	3	112	0.0	1006.3	102	0.000	0.0
20100210 10:25	-5.4	-5.4	-5.4	87	-7.2	2	5	112	0.0	1006.3	104	0.000	0.0
20100210 10:30	-5.3	-5.3	-5.3	87	-7.2	2	5	112	0.0	1006.3	104	0.000	0.0
20100210 10:35	-5.3	-5.3	-5.3	87	-7.1	3	5	112	0.0	1006.2	108	0.000	0.0
20100210 10:40	-5.2	-5.2	-5.2	87	-7.0	2	5	112	0.0	1006.2	113	0.000	0.0
20100210 10:45	-5.2	-5.2	-5.2	87	-7.0	2	3	112	0.0	1006.3	107	0.000	0.0
20100210 10:50	-5.1	-5.1	-5.1	87	-6.9	2	5	112	0.0	1006.3	101	0.000	0.0
20100210 10:55	-5.1	-5.1	-5.1	87	-6.9	3	6	112	0.0	1006.3	105	0.000	0.0
20100210 11:00	-4.9	-4.9	-4.9	86	-6.9	3	6	315	0.0	1006.4	101	0.025	0.0
20100210 11:05	-4.9	-4.9	-4.9	85	-7.0	3	8	315	0.0	1006.3	114	0.000	0.0
20100210 11:10	-4.8	-4.8	-4.8	85	-7.0	3	8	315	0.0	1006.4	129	0.000	0.0
20100210 11:15	-4.8	-4.8	-4.8	85	-6.9	2	5	315	0.0	1006.4	143	0.000	0.0
20100210 11:20	-4.8	-4.8	-4.8	85	-6.9	3	6	315	0.0	1006.4	166	0.000	0.0
20100210 11:25	-4.7	-4.7	-4.7	85	-6.8	2	5	315	0.0	1006.4	184	0.000	0.0
20100210 11:30	-4.6	-4.6	-4.6	86	-6.5	2	8	315	0.0	1006.5	137	0.000	0.0
20100210 11:35	-4.6	-8.6	-4.6	84	-6.8	10	18	315	0.0	1006.5	128	0.000	0.0
20100210 11:40	-4.7	-8.3	-4.7	84	-7.0	8	14	315	0.0	1006.5	131	0.000	0.0
20100210 11:45	-4.8	-7.8	-4.8	84	-7.1	6	14	315	0.2	1006.5	134	0.000	0.0
20100210 11:50	-4.8	-7.7	-4.8	84	-7.1	6	13	315	0.0	1006.5	149	0.000	0.0
20100210 11:55	-4.8	-4.8	-4.8	84	-7.1	5	11	315	0.0	1006.6	165	0.000	0.0
20100210 12:00	-4.8	-4.8	-4.8	84	-7.1	5	14	0	0.0	1006.6	181	0.051	0.0
20100210 12:05	-4.8	-4.8	-4.8	84	-7.1	3	6	0	0.0	1006.6	176	0.000	0.0
20100210 12:10	-4.8	-4.8	-4.8	84	-7.1	3	6	0	0.0	1006.6	193	0.000	0.1
20100210 12:15	-4.9	-4.9	-4.9	84	-7.2	5	8	0	0.0	1006.5	234	0.000	0.5
20100210 12:20	-4.8	-4.8	-4.8	85	-7.0	3	6	0	0.0	1006.5	251	0.000	0.5
20100210 12:25	-4.7	-4.7	-4.7	85	-6.8	3	5	0	0.0	1006.5	252	0.000	0.5
20100210 12:30	-4.5	-4.5	-4.5	84	-6.8	3	6	0	0.0	1006.5	245	0.000	0.2
20100210 12:35	-4.4	-4.4	-4.4	84	-6.7	3	8	338	0.0	1006.5	240	0.000	0.0
20100210 12:40	-4.3	-4.3	-4.3	84	-6.6	5	8	338	0.0	1006.5	237	0.000	0.0
20100210 12:45	-4.3	-4.3	-4.3	83	-6.7	3	8	338	0.0	1006.5	237	0.000	0.0
20100210 12:50	-4.3	-7.1	-4.3	83	-6.7	6	10	338	0.0	1006.5	236	0.000	0.3
20100210 12:55	-4.3	-4.3	-4.3	83	-6.7	5	11	315	0.0	1006.5	254	0.000	0.5
20100210 13:00	-4.2	-4.2	-4.2	83	-6.7	5	8	315	0.0	1006.4	280	0.076	0.6
20100210 13:05	-4.1	-7.5	-4.1	82	-6.7	8	13	315	0.0	1006.4	289	0.000	0.7
20100210 13:10	-3.9	-6.7	-3.9	81	-6.7	6	11	315	0.0	1006.4	267	0.000	0.8
20100210 13:15	-3.9	-6.7	-3.9	82	-6.5	6	11	315	0.0	1006.3	292	0.000	1.0
20100210 13:20	-3.8	-6.5	-3.8	82	-6.4	6	11	315	0.0	1006.3	286	0.000	1.0
20100210 13:25	-3.8	-7.2	-3.8	81	-6.6	8	11	315	0.0	1006.2	257	0.000	1.0
20100210 13:30	-3.9	-6.7	-3.9	81	-6.7	6	13	315	0.0	1006.3	258	0.000	1.1
20100210 13:35	-3.9	-3.9	-3.9	80	-6.8	5	10	338	0.0	1006.3	270	0.000	1.1
20100210 13:40	-3.9	-6.7	-3.9	78	-7.2	6	11	315	0.0	1006.3	263	0.000	1.0
20100210 13:45	-3.9	-6.7	-3.9	80	-6.8	6	11	315	0.0	1006.1	225	0.000	0.9
20100210 13:50	-3.9	-3.9	-3.9	80	-6.9	5	10	315	0.0	1006.1	195	0.000	0.9
20100210 13:55	-4.1	-4.1	-4.1	81	-6.8	5	10	315	0.0	1006.1	181	0.000	0.8
20100210 14:00	-4.1	-4.1	-4.1	82	-6.7	5	8	315	0.0	1006.0	207	0.076	0.8
20100210 14:05	-4.2	-4.2	-4.2	82	-6.8	5	11	315	0.0	1006.0	172	0.000	0.8
20100210 14:10	-4.3	-4.3	-4.3	82	-6.9	3	10	338	0.0	1005.8	132	0.000	0.6
20100210 14:15	-4.5	-8.6	-4.5	81	-7.3	10	16	338	0.0	1005.9	146	0.000	0.7
20100210 14:20	-4.6	-8.7	-4.6	82	-7.2	10	18	315	0.0	1005.9	157	0.000	0.7
20100210 14:25	-4.8	-8.9	-4.8	82	-7.4	10	18	315	0.0	1005.8	153	0.000	0.6
20100210 14:30	-4.8	-9.0	-4.8	82	-7.4	10	16	315	0.0	1005.8	154	0.000	0.6
20100210 14:35	-4.9	-8.5	-4.9	83	-7.3	8	16	315	0.0	1005.9	153	0.000	0.6
20100210 14:40	-4.8	-7.8	-4.8	83	-7.3	6	10	315	0.0	1005.9	143	0.000	0.5
20100210 14:45	-4.8	-8.4	-4.8	83	-7.3	8	16	315	0.0	1006.1	138	0.000	0.5
20100210 14:50	-4.8	-4.8	-4.8	83	-7.3	5	10	338	0.0	1006.1	131	0.000	0.3
20100210 14:55	-5.0	-5.0	-5.0	83	-7.4	5	10	0	0.0	1006.1	117	0.000	0.0
20100210 15:00	-5.1	-5.1	-5.1	84	-7.4	5	8	0	0.0	1006.2	116	0.051	0.0
20100210 15:05	-5.2	-5.2	-5.2	84	-7.5	3	6	0	0.0	1006.0	115	0.000	0.0
20100210 15:10	-5.2	-5.2	-5.2	85	-7.3	3	8	0	0.0	1006.1	110	0.000	0.0
20100210 15:15	-5.3	-5.3	-5.3	85	-7.4	3	8	0	0.0	1006.1	102	0.000	0.0
20100210 15:20	-5.3	-5.3	-5.3	85	-7.4	3	10	0	0.0	1006.0	96	0.000	0.0
20100210 15:25	-5.3	-5.3	-5.3	85	-7.4	3	8	0	0.0	1006.1	85	0.000	0.0
20100210 15:30	-5.3	-5.3	-5.3	85	-7.4	3	6	0	0.0	1006.1	74	0.000	0.0
20100210 15:35	-5.3	-5.3	-5.3	85	-7.5	3	6	0	0.0	1006.1	67	0.000	0.0
20100210 15:40	-5.3	-5.3	-5.3	85	-7.5	3	8	338	0.0	1006.2	63	0.000	0.0
20100210 15:45	-5.3	-5.3	-5.3	85	-7.5	3	6	338	0.0	1006.2	58	0.000	0.0
20100210 15:50	-5.3	-5.3	-5.3	86	-7.3	3	11	338	0.0	1006.2	56	0.000	0.0
20100210 15:55	-5.3	-5.3	-5.3	86	-7.2	3	6	338	0.0	1006.1	53	0.000	0.0
20100210 16:00	-5.3	-8.3	-5.3	86	-7.2	6	10	315	0.0	1006.1	52	0.025	0.0
20100210 16:05	-5.3	-5.3	-5.3	86	-7.3	3	10	315	0.0	1006.3	47	0.000	0.0
20100210 16:10	-5.3	-5.3	-5.3	87	-7.2	3	5	338	0.2	1006.3	44	0.000	0.0
20100210 16:15	-5.4	-5.4	-5.4	87	-7.2	3	8	338	0.0	1006.3	38	0.000	0.0
20100210 16:20	-5.3	-5.3	-5.3	87	-7.2	3	8	338	0.0	1006.4	36	0.000	0.0
20100210 16:25	-5.3	-5.3	-5.3	87	-7.2	3	6	338	0.0	1006.4	31	0.000	0.0
20100210 16:30	-5.4	-5.4	-5.4	87	-7.3	3	6	338	0.0	1006.4	26	0.000	0.0
20100210 16:35	-5.5	-8.5	-5.5	87	-7.3	6	11	338	0.0	1006.5	24	0.000	0.0
20100210 16:40	-5.5	-5.5	-5.5	88	-7.2	3	8	338	0.2	1006.6	20	0.000	0.0
20100210 16:45	-5.6	-8.6	-5.6	87	-7.4	6	11	338	0.0	1006.5	16	0.000	0.0
20100210 16:50	-5.6	-5.6	-5.6	88	-7.3	5	10	338	0.0	1006.5	16	0.000	0.0
20100210 16:55	-5.7	-8.7	-5.7	88	-7.3	6	14	338	0.0	1006.6	13	0.000	0.0
20100210 17:00	-5.8	-10.6	-5.8	88	-7.4	11	16	315	0.0	1006.6	11	0.000	0.0
20100210 17:05	-5.8	-9.5	-5.8	88	-7.4	8	16	315	0.0	1006.6	9	0.000	0.0
20100210 17:10	-5.8	-9.6	-5.8	88	-7.5	8	14	338	0.2	1006.6	7	0.000	0.0
20100210 17:15	-5.8	-8.9	-5.8	89	-7.3	6	14	338	0.0	1006.6	3	0.000	0.0
20100210 17:20	-5.9	-9.7	-5.9	89	-7.4	8	16	315	0.0	1006.7	0	0.000	0.0
20100210 17:25	-5.9	-5.9	-5.9	89	-7.4	5	10	338	0.0	1006.9	0	0.000	0.0
20100210 17:30	-5.9	-5.9	-5.9	89	-7.5	5	10	338	0.0	1006.9	0	0.000	0.0
20100210 17:35	-6.0	-6.0	-6.0	88	-7.7	3	8	0	0.0	1007.0	0	0.000	0.0
20100210 17:40	-6.0	-9.1	-6.0	88	-7.7	6	11	315	0.0	1007.0	0	0.000	0.0
20100210 17:45	-6.0	-9.1	-6.0	88	-7.7	6	18	315	0.0	1007.0	0	0.000	0.0
20100210 17:50	-6.0	-10.4	-6.0	88	-7.7	10	16	338	0.2	1007.0	0	0.000	0.0
20100210 17:55	-6.1	-9.8	-6.1	89	-7.6	8	14	338	0.0	1007.1	0	0.000	0.0
20100210 18:00	-6.1	-9.9	-6.1	89	-7.6	8	19	338	0.0	1007.0	0	0.000	0.0
20100210 18:05	-6.2	-10.5	-6.2	89	-7.7	10	16	315	0.0	1007.1	0	0.000	0.0
20100210 18:10	-6.3	-11.2	-6.3	89	-7.8	11	18	315	0.0	1007.1	0	0.000	0.0
20100210 18:15	-6.3	-10.7	-6.3	89	-7.8	10	18	315	0.0	1007.2	0	0.000	0.0
20100210 18:20	-6.4	-10.9	-6.4	89	-8.0	10	18	338	0.0	1007.2	0	0.000	0.0
20100210 18:25	-6.5	-10.9	-6.5	89	-8.0	10	16	338	0.0	1007.3	0	0.000	0.0
20100210 18:30	-6.5	-10.4	-6.5	89	-8.0	8	18	315	0.2	1007.4	0	0.000	0.0
20100210 18:35	-6.6	-10.4	-6.6	89	-8.1	8	16	338	0.0	1007.4	0	0.000	0.0
20100210 18:40	-6.6	-6.6	-6.6	89	-8.1	5	11	0	0.0	1007.5	0	0.000	0.0
20100210 18:45	-6.7	-6.7	-6.7	89	-8.2	5	8	0	0.0	1007.5	0	0.000	0.0
20100210 18:50	-6.7	-9.9	-6.7	89	-8.2	6	14	315	0.0	1007.5	0	0.000	0.0
20100210 18:55	-6.7	-11.1	-6.7	89	-8.2	10	19	315	0.0	1007.5	0	0.000	0.0
20100210 19:00	-6.7	-12.6	-6.7	89	-8.2	14	21	315	0.0	1007.5	0	0.000	0.0
20100210 19:05	-6.8	-12.7	-6.8	89	-8.3	14	21	315	0.2	1007.5	0	0.000	0.0
20100210 19:10	-6.8	-12.7	-6.8	89	-8.3	14	23	315	0.0	1007.5	0	0.000	0.0
20100210 19:15	-7.0	-11.0	-7.0	89	-8.5	8	16	338	0.0	1007.7	0	0.000	0.0
20100210 19:20	-7.1	-7.1	-7.1	89	-8.6	5	13	338	0.0	1007.7	0	0.000	0.0
20100210 19:25	-7.1	-7.1	-7.1	89	-8.6	3	10	0	0.0	1007.7	0	0.000	0.0
20100210 19:30	-7.2	-7.2	-7.2	89	-8.7	5	8	0	0.2	1007.6	0	0.000	0.0
20100210 19:35	-7.2	-7.2	-7.2	89	-8.7	5	8	0	0.0	1007.6	0	0.000	0.0
20100210 19:40	-7.2	-7.2	-7.2	89	-8.7	3	8	0	0.0	1007.7	0	0.000	0.0
20100210 19:45	-7.2	-7.2	-7.2	89	-8.7	5	8	338	0.0	1007.7	0	0.000	0.0
20100210 19:50	-7.2	-7.2	-7.2	89	-8.7	5	8	0	0.0	1007.7	0	0.000	0.0
20100210 19:55	-7.2	-7.2	-7.2	89	-8.7	3	11	0	0.0	1007.6	0	0.000	0.0
20100210 20:00	-7.2	-11.8	-7.2	89	-8.7	10	18	315	0.0	1007.6	0	0.000	0.0
20100210 20:05	-7.3	-11.9	-7.3	89	-8.8	10	18	338	0.2	1007.6	0	0.000	0.0
20100210 20:10	-7.3	-7.3	-7.3	89	-8.8	5	10	338	0.0	1007.5	0	0.000	0.0
20100210 20:15	-7.3	-11.3	-7.3	89	-8.8	8	16	315	0.0	1007.5	0	0.000	0.0
20100210 20:20	-7.4	-11.5	-7.4	89	-8.9	8	16	315	0.0	1007.5	0	0.000	0.0
20100210 20:25	-7.5	-10.8	-7.5	89	-9.0	6	16	315	0.0	1007.5	0	0.000	0.0
20100210 20:30	-7.6	-11.6	-7.6	89	-9.0	8	14	315	0.0	1007.6	0	0.000	0.0
20100210 20:35	-7.6	-11.7	-7.6	89	-9.1	8	16	315	0.2	1007.6	0	0.000	0.0
20100210 20:40	-7.7	-11.7	-7.7	89	-9.2	8	14	315	0.0	1007.6	0	0.000	0.0
20100210 20:45	-7.7	-11.7	-7.7	89	-9.2	8	13	315	0.0	1007.6	0	0.000	0.0
20100210 20:50	-7.7	-11.7	-7.7	89	-9.2	8	16	315	0.0	1007.5	0	0.000	0.0
20100210 20:55	-7.7	-12.3	-7.7	89	-9.2	10	16	315	0.0	1007.5	0	0.000	0.0
20100210 21:00	-7.7	-12.3	-7.7	89	-9.2	10	16	315	0.0	1007.5	0	0.000	0.0
20100210 21:05	-7.7	-11.0	-7.7	89	-9.2	6	10	315	0.0	1007.4	0	0.000	0.0
20100210 21:10	-7.7	-11.0	-7.7	89	-9.2	6	14	315	0.2	1007.3	0	0.000	0.0
20100210 21:15	-7.7	-11.7	-7.7	89	-9.2	8	14	315	0.0	1007.3	0	0.000	0.0
20100210 21:20	-7.7	-12.4	-7.7	89	-9.2	10	19	315	0.0	1007.3	0	0.000	0.0
20100210 21:25	-7.7	-11.1	-7.7	89	-9.2	6	11	315	0.0	1007.3	0	0.000	0.0
20100210 21:30	-7.7	-11.1	-7.7	89	-9.2	6	16	315	0.0	1007.2	0	0.000	0.0
20100210 21:35	-7.7	-11.1	-7.7	89	-9.2	6	14	315	0.2	1007.3	0	0.000	0.0
20100210 21:40	-7.7	-7.7	-7.7	89	-9.2	5	10	315	0.0	1007.3	0	0.000	0.0
20100210 21:45	-7.7	-12.4	-7.7	89	-9.2	10	18	315	0.0	1007.2	0	0.000	0.0
20100210 21:50	-7.8	-11.9	-7.8	89	-9.3	8	14	315	0.0	1007.3	0	0.000	0.0
20100210 21:55	-7.8	-7.8	-7.8	89	-9.3	5	11	315	0.0	1007.2	0	0.000	0.0
20100210 22:00	-7.8	-7.8	-7.8	89	-9.3	5	6	292	0.0	1007.1	0	0.000	0.0
20100210 22:05	-7.8	-11.2	-7.8	89	-9.3	6	11	292	0.0	1007.1	0	0.000	0.0
20100210 22:10	-7.8	-7.8	-7.8	89	-9.3	5	10	315	0.0	1007.1	0	0.000	0.0
20100210 22:15	-7.8	-7.8	-7.8	89	-9.3	5	8	292	0.0	1007.0	0	0.000	0.0
20100210 22:20	-7.8	-7.8	-7.8	89	-9.3	5	8	292	0.2	1007.0	0	0.000	0.0
20100210 22:25	-7.8	-7.8	-7.8	89	-9.3	3	8	292	0.0	1007.0	0	0.000	0.0
20100210 22:30	-7.8	-7.8	-7.8	88	-9.4	5	8	315	0.0	1006.9	0	0.000	0.0
20100210 22:35	-7.8	-7.8	-7.8	88	-9.5	5	8	315	0.0	1006.9	0	0.000	0.0
20100210 22:40	-7.8	-7.8	-7.8	88	-9.5	5	10	292	0.0	1006.8	0	0.000	0.0
20100210 22:45	-7.8	-7.8	-7.8	88	-9.5	5	8	292	0.0	1006.8	0	0.000	0.0
20100210 22:50	-7.9	-7.9	-7.9	88	-9.5	3	8	292	0.0	1006.8	0	0.000	0.0
20100210 22:55	-7.9	-7.9	-7.9	88	-9.5	3	6	292	0.0	1006.8	0	0.000	0.0
20100210 23:00	-7.8	-7.8	-7.8	89	-9.3	3	6	292	0.2	1006.7	0	0.000	0.0
20100210 23:05	-7.9	-7.9	-7.9	89	-9.4	5	8	292	0.0	1006.7	0	0.000	0.0
20100210 23:10	-7.9	-7.9	-7.9	88	-9.6	5	8	292	0.0	1006.7	0	0.000	0.0
20100210 23:15	-7.9	-7.9	-7.9	89	-9.4	3	6	292	0.0	1006.6	0	0.000	0.0
20100210 23:20	-7.9	-7.9	-7.9	89	-9.4	5	6	292	0.0	1006.7	0	0.000	0.0
20100210 23:25	-8.0	-8.0	-8.0	89	-9.5	5	6	292	0.0	1006.7	0	0.000	0.0
20100210 23:30	-8.0	-8.0	-8.0	89	-9.5	5	8	292	0.2	1006.6	0	0.000	0.0
20100210 23:35	-8.0	-8.0	-8.0	89	-9.5	3	6	292	0.0	1006.6	0	0.000	0.0
20100210 23:40	-7.9	-7.9	-7.9	89	-9.4	3	6	292	0.0	1006.6	0	0.000	0.0
20100210 23:45	-8.0	-8.0	-8.0	89	-9.5	5	10	292	0.0	1006.6	0	0.000	0.0
20100210 23:50	-8.0	-8.0	-8.0	89	-9.5	3	6	292	0.2	1006.6	0	0.000	0.0
20100210 23:55	-7.9	-7.9	-7.9	89	-9.4	3	6	292	0.0	1006.6	0	0.000	0.0



Please note the license to use and transfer of this data:
http://creativecommons.org/licenses/by-nc-sa/3.0/deed.en

Bitte beachten sie die Lizenz zur Verwertung und Weitergabe der Daten:
http://creativecommons.org/licenses/by-nc-sa/3.0/deed.de

zurück zur Übersicht der Archivdaten (Monats und Tagesdaten)

Cookies helfen bei der Bereitstellung von Inhalten. Durch die Nutzung dieser Seiten erklärst du dich damit einverstanden, dass Cookies auf deinem Rechner gespeichert werden. Weitere Information